createdAt,value
2018-02-12T00:02:20.234Z,14.60
2018-02-12T00:04:47.783Z,14.27
2018-02-12T00:07:15.371Z,14.03
2018-02-12T00:09:42.901Z,13.33
2018-02-12T00:12:10.764Z,14.83
2018-02-12T00:14:38.337Z,14.07
2018-02-12T00:17:06.036Z,13.70
2018-02-12T00:19:33.631Z,13.33
2018-02-12T00:22:01.694Z,13.57
2018-02-12T00:24:29.272Z,13.53
2018-02-12T00:26:56.854Z,13.37
2018-02-12T00:29:24.433Z,14.30
2018-02-12T00:31:52.001Z,14.63
2018-02-12T00:34:19.576Z,16.30
2018-02-12T00:36:47.119Z,15.30
2018-02-12T00:39:14.733Z,17.87
2018-02-12T00:41:42.261Z,16.17
2018-02-12T00:44:09.794Z,16.03
2018-02-12T00:46:37.362Z,15.60
2018-02-12T00:49:05.082Z,16.47
2018-02-12T00:51:32.663Z,17.97
2018-02-12T00:54:00.206Z,16.83
2018-02-12T00:56:27.786Z,17.80
2018-02-12T00:58:55.333Z,17.10
2018-02-12T01:01:22.948Z,17.23
2018-02-12T01:03:50.526Z,17.40
2018-02-12T01:06:18.511Z,14.83
2018-02-12T01:08:46.091Z,15.63
2018-02-12T01:11:13.616Z,15.80
2018-02-12T01:13:41.181Z,14.83
2018-02-12T01:16:08.715Z,14.37
2018-02-12T01:18:36.285Z,14.17
2018-02-12T01:21:03.819Z,14.20
2018-02-12T01:23:31.803Z,14.57
2018-02-12T01:25:59.359Z,13.93
2018-02-12T01:28:26.957Z,14.23
2018-02-12T01:30:54.710Z,14.27
2018-02-12T01:33:22.250Z,14.93
2018-02-12T01:35:49.823Z,13.77
2018-02-12T01:38:17.345Z,14.77
2018-02-12T01:40:44.939Z,15.40
2018-02-12T01:43:12.464Z,14.30
2018-02-12T01:45:39.997Z,14.57
2018-02-12T01:48:07.581Z,15.03
2018-02-12T01:50:35.194Z,15.63
2018-02-12T01:53:02.781Z,15.30
2018-02-12T01:55:30.308Z,15.27
2018-02-12T01:57:57.846Z,15.80
2018-02-12T02:00:25.424Z,17.80
2018-02-12T02:02:53.020Z,16.60
2018-02-12T02:05:20.855Z,17.70
2018-02-12T02:07:48.399Z,17.57
2018-02-12T02:10:15.925Z,16.57
2018-02-12T02:12:43.551Z,15.13
2018-02-12T02:15:11.088Z,16.13
2018-02-12T02:17:38.756Z,16.07
2018-02-12T02:20:06.346Z,16.10
2018-02-12T02:22:33.971Z,17.00
2018-02-12T02:25:01.938Z,17.07
2018-02-12T02:27:29.513Z,16.53
2018-02-12T02:29:57.317Z,17.07
2018-02-12T02:32:24.885Z,17.60
2018-02-12T02:34:52.973Z,17.20
2018-02-12T02:37:20.545Z,17.40
2018-02-12T02:39:48.087Z,18.77
2018-02-12T02:42:15.668Z,19.07
2018-02-12T02:44:43.217Z,16.77
2018-02-12T02:47:10.789Z,17.93
2018-02-12T02:49:38.375Z,18.37
2018-02-12T02:52:05.945Z,16.53
2018-02-12T02:54:33.478Z,17.63
2018-02-12T02:57:01.058Z,17.93
2018-02-12T02:59:28.593Z,20.40
2018-02-12T03:01:56.542Z,19.90
2018-02-12T03:04:24.074Z,20.10
2018-02-12T03:06:51.654Z,20.20
2018-02-12T03:09:19.250Z,21.43
2018-02-12T03:11:47.217Z,21.63
2018-02-12T03:14:14.794Z,20.43
2018-02-12T03:16:42.326Z,21.00
2018-02-12T03:19:09.921Z,21.53
2018-02-12T03:21:37.454Z,23.70
2018-02-12T03:24:04.999Z,20.37
2018-02-12T03:26:32.774Z,21.27
2018-02-12T03:29:00.312Z,22.70
2018-02-12T03:31:27.888Z,21.93
2018-02-12T03:33:55.426Z,23.23
2018-02-12T03:36:23.005Z,19.63
2018-02-12T03:38:50.544Z,20.30
2018-02-12T03:41:18.117Z,19.23
2018-02-12T03:43:45.689Z,19.73
2018-02-12T03:46:13.617Z,18.67
2018-02-12T03:48:41.738Z,18.37
2018-02-12T03:51:09.808Z,18.83
2018-02-12T03:53:37.388Z,20.83
2018-02-12T03:56:04.934Z,21.00
2018-02-12T03:58:32.508Z,20.57
2018-02-12T04:01:00.038Z,20.03
2018-02-12T04:03:27.592Z,19.37
2018-02-12T04:05:55.171Z,18.90
2018-02-12T04:08:23.238Z,19.63
2018-02-12T04:10:51.003Z,18.70
2018-02-12T04:13:18.529Z,18.63
2018-02-12T04:15:46.403Z,17.70
2018-02-12T04:18:13.934Z,17.90
2018-02-12T04:20:41.509Z,18.10
2018-02-12T04:23:09.047Z,19.17
2018-02-12T04:25:36.616Z,19.67
2018-02-12T04:28:04.150Z,20.47
2018-02-12T04:30:31.731Z,18.27
2018-02-12T04:32:59.536Z,18.30
2018-02-12T04:35:27.106Z,18.83
2018-02-12T04:37:54.633Z,17.77
2018-02-12T04:40:22.161Z,17.80
2018-02-12T04:42:49.739Z,19.17
2018-02-12T04:45:17.273Z,18.47
2018-02-12T04:47:45.005Z,17.20
2018-02-12T04:50:13.367Z,17.47
2018-02-12T04:52:40.941Z,16.47
2018-02-12T04:55:08.469Z,17.80
2018-02-12T04:57:36.002Z,16.57
2018-02-12T05:00:03.587Z,18.07
2018-02-12T05:02:31.178Z,17.60
2018-02-12T05:04:58.713Z,17.63
2018-02-12T05:07:26.250Z,17.17
2018-02-12T05:09:53.888Z,18.50
2018-02-12T05:12:21.417Z,18.33
2018-02-12T05:14:49.373Z,17.07
2018-02-12T05:17:17.710Z,18.40
2018-02-12T05:19:46.282Z,17.20
2018-02-12T05:22:13.895Z,17.43
2018-02-12T05:24:41.793Z,17.13
2018-02-12T05:27:09.330Z,17.07
2018-02-12T05:29:37.191Z,16.30
2018-02-12T05:32:04.798Z,16.20
2018-02-12T05:34:32.722Z,15.67
2018-02-12T05:37:00.512Z,15.43
2018-02-12T05:39:28.051Z,17.55
2018-02-12T05:41:55.631Z,15.37
2018-02-12T05:44:23.205Z,15.63
2018-02-12T05:46:51.228Z,17.37
2018-02-12T05:49:18.757Z,15.60
2018-02-12T05:51:46.303Z,17.53
2018-02-12T05:54:13.887Z,16.37
2018-02-12T05:56:41.519Z,17.50
2018-02-12T05:59:09.075Z,16.47
2018-02-12T06:01:36.651Z,15.73
2018-02-12T06:04:05.110Z,16.80
2018-02-12T06:06:32.695Z,16.73
2018-02-12T06:09:00.458Z,16.27
2018-02-12T06:11:28.619Z,16.67
2018-02-12T06:13:56.211Z,17.10
2018-02-12T06:16:23.753Z,16.17
2018-02-12T06:18:51.673Z,18.55
2018-02-12T06:21:19.224Z,18.73
2018-02-12T06:23:47.497Z,21.92
2018-02-12T06:26:15.034Z,22.77
2018-02-12T06:28:42.601Z,20.53
2018-02-12T06:31:10.138Z,19.87
2018-02-12T06:33:37.738Z,19.33
2018-02-12T06:36:05.274Z,19.73
2018-02-12T06:38:33.581Z,18.60
2018-02-12T06:41:02.163Z,19.93
2018-02-12T06:43:30.090Z,19.67
2018-02-12T06:45:57.622Z,18.97
2018-02-12T06:48:25.567Z,22.87
2018-02-12T06:50:53.102Z,23.37
2018-02-12T06:53:20.988Z,33.13
2018-02-12T06:55:48.544Z,26.47
2018-02-12T06:58:16.134Z,25.73
2018-02-12T07:00:44.296Z,23.13
2018-02-12T07:03:12.695Z,23.90
2018-02-12T07:05:40.226Z,28.95
2018-02-12T07:08:07.974Z,24.60
2018-02-12T07:10:35.955Z,23.73
2018-02-12T07:13:03.958Z,25.23
2018-02-12T07:15:32.502Z,24.57
2018-02-12T07:18:00.111Z,29.37
2018-02-12T07:20:27.953Z,27.50
2018-02-12T07:22:55.549Z,27.37
2018-02-12T07:25:23.125Z,25.60
2018-02-12T07:27:51.592Z,24.00
2018-02-12T07:30:19.216Z,26.95
2018-02-12T07:32:46.806Z,23.80
2018-02-12T07:35:14.352Z,31.17
2018-02-12T07:37:42.445Z,37.90
2018-02-12T07:40:10.194Z,28.60
2018-02-12T07:42:38.111Z,32.23
2018-02-12T07:45:05.807Z,40.43
2018-02-12T07:47:33.435Z,36.17
2018-02-12T07:50:01.438Z,30.70
2018-02-12T07:52:29.182Z,28.42
2018-02-12T07:54:56.762Z,29.27
2018-02-12T07:57:24.442Z,23.70
2018-02-12T07:59:52.886Z,23.73
2018-02-12T08:02:20.428Z,28.48
2018-02-12T08:04:48.187Z,21.00
2018-02-12T08:07:16.232Z,25.73
2018-02-12T08:09:44.449Z,24.13
2018-02-12T08:12:12.021Z,23.25
2018-02-12T08:14:39.601Z,21.53
2018-02-12T08:17:07.129Z,28.03
2018-02-12T08:19:34.695Z,24.07
2018-02-12T08:22:02.453Z,26.20
2018-02-12T08:24:30.056Z,23.30
2018-02-12T08:26:57.718Z,21.97
2018-02-12T08:29:25.303Z,24.27
2018-02-12T08:31:53.394Z,23.40
2018-02-12T08:34:21.277Z,22.40
2018-02-12T08:36:48.813Z,22.60
2018-02-12T08:39:16.354Z,21.13
2018-02-12T08:41:44.200Z,23.25
2018-02-12T08:44:11.789Z,22.87
2018-02-12T08:46:39.853Z,24.00
2018-02-12T08:49:08.154Z,22.83
2018-02-12T08:51:36.214Z,18.70
2018-02-12T08:54:03.793Z,17.17
2018-02-12T08:56:31.745Z,20.48
2018-02-12T08:59:00.104Z,16.83
2018-02-12T09:01:28.343Z,19.97
2018-02-12T09:03:55.935Z,18.77
2018-02-12T09:06:24.525Z,18.93
2018-02-12T09:08:52.348Z,17.93
2018-02-12T09:11:19.951Z,16.70
2018-02-12T09:25:48.094Z,16.60
2018-02-12T09:28:15.921Z,18.50
2018-02-12T09:30:43.463Z,17.60
2018-02-12T09:33:11.730Z,16.83
2018-02-12T09:35:40.962Z,18.12
2018-02-12T09:38:09.000Z,17.45
2018-02-12T09:40:36.754Z,15.70
2018-02-12T09:43:04.324Z,17.25
2018-02-12T09:45:31.957Z,15.97
2018-02-12T09:48:00.206Z,15.53
2018-02-12T09:50:29.091Z,17.08
2018-02-12T09:52:57.564Z,16.02
2018-02-12T09:55:25.198Z,15.87
2018-02-12T09:57:54.122Z,17.60
2018-02-12T10:00:22.498Z,15.83
2018-02-12T10:02:50.088Z,14.80
2018-02-12T10:05:19.600Z,15.67
2018-02-12T10:07:49.239Z,15.43
2018-02-12T10:10:18.267Z,15.27
2018-02-12T10:12:45.855Z,14.87
2018-02-12T10:15:13.435Z,15.63
2018-02-12T10:17:41.043Z,15.27
2018-02-12T10:20:08.592Z,15.57
2018-02-12T10:22:36.208Z,15.77
2018-02-12T10:25:04.418Z,14.47
2018-02-12T10:27:32.288Z,16.77
2018-02-12T10:30:00.273Z,16.27
2018-02-12T10:32:29.076Z,15.63
2018-02-12T10:34:56.671Z,15.27
2018-02-12T10:37:24.285Z,14.53
2018-02-12T10:39:53.036Z,16.17
2018-02-12T10:42:21.445Z,15.67
2018-02-12T10:44:50.440Z,15.90
2018-02-12T10:47:19.548Z,14.83
2018-02-12T10:49:47.122Z,16.77
2018-02-12T10:52:14.719Z,15.40
2018-02-12T10:54:42.803Z,15.03
2018-02-12T10:57:10.420Z,16.40
2018-02-12T10:59:38.360Z,15.83
2018-02-12T11:02:05.904Z,16.40
2018-02-12T11:04:35.404Z,15.70
2018-02-12T11:07:02.996Z,14.83
2018-02-12T11:09:30.614Z,14.60
2018-02-12T11:11:58.183Z,14.37
2018-02-12T11:14:25.780Z,15.98
2018-02-12T11:16:54.718Z,16.77
2018-02-12T11:19:24.175Z,18.62
2018-02-12T11:21:52.640Z,16.40
2018-02-12T11:24:20.779Z,15.03
2018-02-12T11:26:48.362Z,15.67
2018-02-12T11:29:15.915Z,17.23
2018-02-12T11:31:43.985Z,15.03
2018-02-12T11:34:11.541Z,14.87
2018-02-12T11:36:41.872Z,15.95
2018-02-12T11:39:09.853Z,15.87
2018-02-12T11:41:38.123Z,14.03
2018-02-12T11:44:05.796Z,16.35
2018-02-12T11:46:33.407Z,15.03
2018-02-12T11:49:01.081Z,16.98
2018-02-12T11:51:28.657Z,15.52
2018-02-12T11:53:56.252Z,14.13
2018-02-12T11:56:23.845Z,14.97
2018-02-12T11:58:51.543Z,14.07
2018-02-12T12:01:19.132Z,13.30
2018-02-12T12:03:47.476Z,14.23
2018-02-12T12:06:15.385Z,12.67
2018-02-12T12:08:42.938Z,13.70
2018-02-12T12:11:10.984Z,11.17
2018-02-12T12:13:38.553Z,13.07
2018-02-12T12:16:06.151Z,13.47
2018-02-12T12:18:34.087Z,14.90
2018-02-12T12:21:01.678Z,13.23
2018-02-12T12:23:29.281Z,13.90
2018-02-12T12:25:56.864Z,13.27
2018-02-12T12:28:25.264Z,13.73
2018-02-12T12:30:53.453Z,13.62
2018-02-12T12:33:21.719Z,12.17
2018-02-12T12:35:49.566Z,13.50
2018-02-12T12:38:17.137Z,14.87
2018-02-12T12:40:44.751Z,13.68
2018-02-12T12:43:12.336Z,12.70
2018-02-12T12:45:40.004Z,13.07
2018-02-12T12:48:07.607Z,12.37
2018-02-12T12:50:35.184Z,15.85
2018-02-12T12:53:02.771Z,13.03
2018-02-12T12:55:31.021Z,12.57
2018-02-12T12:57:58.591Z,13.23
2018-02-12T13:00:26.878Z,13.20
2018-02-12T13:02:54.462Z,14.00
2018-02-12T13:05:22.080Z,13.53
2018-02-12T13:07:50.146Z,13.07
2018-02-12T13:10:18.218Z,14.70
2018-02-12T13:12:45.946Z,13.23
2018-02-12T13:15:13.504Z,13.97
2018-02-12T13:17:41.058Z,13.50
2018-02-12T13:20:08.787Z,14.23
2018-02-12T13:22:36.452Z,14.95
2018-02-12T13:25:04.186Z,14.50
2018-02-12T13:27:32.165Z,15.90
2018-02-12T13:29:59.844Z,14.23
2018-02-12T13:32:28.059Z,14.60
2018-02-12T13:34:56.129Z,15.50
2018-02-12T13:37:23.904Z,14.87
2018-02-12T13:39:51.460Z,15.80
2018-02-12T13:42:19.255Z,17.27
2018-02-12T13:44:47.443Z,15.27
2018-02-12T13:47:16.208Z,16.40
2018-02-12T13:49:43.953Z,16.27
2018-02-12T13:52:12.391Z,15.30
2018-02-12T13:54:39.987Z,17.37
2018-02-12T13:57:07.747Z,15.27
2018-02-12T13:59:35.651Z,15.67
2018-02-12T14:02:03.218Z,15.53
2018-02-12T14:04:30.828Z,16.07
2018-02-12T14:06:58.416Z,16.03
2018-02-12T14:09:28.237Z,15.57
2018-02-12T14:11:55.840Z,17.33
2018-02-12T14:14:23.440Z,17.03
2018-02-12T14:16:51.552Z,19.33
2018-02-12T14:19:19.692Z,17.60
2018-02-12T14:21:47.746Z,19.07
2018-02-12T14:24:15.506Z,18.23
2018-02-12T14:26:43.724Z,18.75
2018-02-12T14:29:12.278Z,17.60
2018-02-12T14:31:40.189Z,18.07
2018-02-12T14:34:07.830Z,19.90
2018-02-12T14:36:35.974Z,18.13
2018-02-12T14:39:03.978Z,18.12
2018-02-12T14:41:32.125Z,18.33
2018-02-12T14:44:00.951Z,19.37
2018-02-12T14:46:28.689Z,19.03
2018-02-12T14:48:57.500Z,19.77
2018-02-12T14:51:25.476Z,19.00
2018-02-12T14:53:54.688Z,19.83
2018-02-12T14:56:22.355Z,20.40
2018-02-12T14:58:49.995Z,20.20
2018-02-12T15:01:18.336Z,19.03
2018-02-12T15:03:45.932Z,19.47
2018-02-12T15:06:13.519Z,19.80
2018-02-12T15:08:41.248Z,20.13
2018-02-12T15:11:10.040Z,20.27
2018-02-12T15:13:38.074Z,21.60
2018-02-12T15:16:05.848Z,21.57
2018-02-12T15:18:33.810Z,22.70
2018-02-12T15:21:02.218Z,22.27
2018-02-12T15:23:30.335Z,21.07
2018-02-12T15:25:57.888Z,22.43
2018-02-12T15:28:25.648Z,22.73
2018-02-12T15:30:53.422Z,22.17
2018-02-12T15:33:22.032Z,22.27
2018-02-12T15:35:49.912Z,21.37
2018-02-12T15:38:18.191Z,23.95
2018-02-12T15:40:46.064Z,22.90
2018-02-12T15:43:13.664Z,23.67
2018-02-12T15:45:42.052Z,22.63
2018-02-12T15:48:10.402Z,20.57
2018-02-12T15:50:39.504Z,22.77
2018-02-12T15:53:07.524Z,21.90
2018-02-12T15:55:35.119Z,22.63
2018-02-12T15:58:02.675Z,21.37
2018-02-12T16:00:31.261Z,27.37
2018-02-12T16:02:59.503Z,28.45
2018-02-12T16:05:27.088Z,26.30
2018-02-12T16:07:55.338Z,26.33
2018-02-12T16:10:22.922Z,26.30
2018-02-12T16:12:51.292Z,26.93
2018-02-12T16:15:20.191Z,29.07
2018-02-12T16:17:48.624Z,28.00
2018-02-12T16:20:16.202Z,33.57
2018-02-12T16:22:44.627Z,43.33
2018-02-12T16:25:12.204Z,36.80
2018-02-12T16:27:39.760Z,37.10
2018-02-12T16:30:08.191Z,38.13
2018-02-12T16:32:36.016Z,40.83
2018-02-12T16:35:05.508Z,46.27
2018-02-12T16:37:33.244Z,50.33
2018-02-12T16:40:00.799Z,48.47
2018-02-12T16:42:28.630Z,51.43
2018-02-12T16:44:56.187Z,53.60
2018-02-12T16:47:24.713Z,55.57
2018-02-12T16:49:53.054Z,55.73
2018-02-12T16:52:22.348Z,52.50
2018-02-12T16:54:50.843Z,53.97
2018-02-12T16:57:18.880Z,50.00
2018-02-12T16:59:46.436Z,54.20
2018-02-12T17:02:14.874Z,52.37
2018-02-12T17:04:43.239Z,53.27
2018-02-12T17:07:10.841Z,51.53
2018-02-12T17:09:38.751Z,49.47
2018-02-12T17:12:07.333Z,48.40
2018-02-12T17:14:35.510Z,52.17
2018-02-12T17:17:03.473Z,57.60
2018-02-12T17:19:31.935Z,57.67
2018-02-12T17:21:59.671Z,62.33
2018-02-12T17:24:28.979Z,58.87
2018-02-12T17:26:56.567Z,63.17
2018-02-12T17:29:24.204Z,54.07
2018-02-12T17:31:52.484Z,50.60
2018-02-12T17:34:20.040Z,54.90
2018-02-12T17:36:48.002Z,50.20
2018-02-12T17:39:16.494Z,49.87
2018-02-12T17:41:44.650Z,47.67
2018-02-12T17:44:12.502Z,51.57
2018-02-12T17:46:41.993Z,47.30
2018-02-12T17:49:11.149Z,45.90
2018-02-12T17:51:38.748Z,44.90
2018-02-12T17:54:07.751Z,45.03
2018-02-12T17:56:36.185Z,43.13
2018-02-12T17:59:03.727Z,44.90
2018-02-12T18:01:31.334Z,41.47
2018-02-12T18:03:58.933Z,42.00
2018-02-12T18:06:26.682Z,44.57
2018-02-12T18:08:54.236Z,53.77
2018-02-12T18:11:22.572Z,47.93
2018-02-12T18:13:50.698Z,46.47
2018-02-12T18:16:19.176Z,49.27
2018-02-12T18:18:46.776Z,45.80
2018-02-12T18:21:14.372Z,42.00
2018-02-12T18:23:42.712Z,43.47
2018-02-12T18:26:10.260Z,45.30
2018-02-12T18:28:38.088Z,43.43
2018-02-12T18:31:06.509Z,44.83
2018-02-12T18:33:34.488Z,44.80
2018-02-12T18:36:02.926Z,43.60
2018-02-12T18:38:30.480Z,46.50
2018-02-12T18:40:58.214Z,47.53
2018-02-12T18:43:25.754Z,47.03
2018-02-12T18:45:53.308Z,44.90
2018-02-12T18:48:20.895Z,48.17
2018-02-12T18:50:48.488Z,48.70
2018-02-12T18:53:17.285Z,50.73
2018-02-12T18:55:44.881Z,47.53
2018-02-12T18:58:14.775Z,48.83
2018-02-12T19:00:42.349Z,50.97
2018-02-12T19:03:10.786Z,53.37
2018-02-12T19:05:38.424Z,52.83
2018-02-12T19:08:06.632Z,50.23
2018-02-12T19:10:35.221Z,51.97
2018-02-12T19:13:02.786Z,51.57
2018-02-12T19:15:30.524Z,51.27
2018-02-12T19:17:58.305Z,51.30
2018-02-12T19:20:25.852Z,55.80
2018-02-12T19:22:54.964Z,53.13
2018-02-12T19:25:22.804Z,54.80
2018-02-12T19:27:51.697Z,61.17
2018-02-12T19:30:19.922Z,56.57
2018-02-12T19:32:48.609Z,59.00
2018-02-12T19:35:17.278Z,60.10
2018-02-12T19:37:44.902Z,57.13
2018-02-12T19:40:13.059Z,59.63
2018-02-12T19:42:40.892Z,58.03
2018-02-12T19:45:08.665Z,54.67
2018-02-12T19:47:36.553Z,57.77
2018-02-12T19:50:04.164Z,58.60
2018-02-12T19:52:32.329Z,63.97
2018-02-12T19:54:59.944Z,60.43
2018-02-12T19:57:28.058Z,56.70
2018-02-12T19:59:55.617Z,61.43
2018-02-12T20:02:26.192Z,59.27
2018-02-12T20:04:54.131Z,59.17
2018-02-12T20:07:22.239Z,58.20
2018-02-12T20:09:50.129Z,60.57
2018-02-12T20:12:18.820Z,57.20
2018-02-12T20:14:46.459Z,57.73
2018-02-12T20:17:14.455Z,56.93
2018-02-12T20:19:42.336Z,55.97
2018-02-12T20:22:09.961Z,54.83
2018-02-12T20:24:39.336Z,55.53
2018-02-12T20:27:07.191Z,54.83
2018-02-12T20:29:35.975Z,55.17
2018-02-12T20:32:04.348Z,56.30
2018-02-12T20:34:31.895Z,58.87
2018-02-12T20:36:59.464Z,68.17
2018-02-12T20:39:27.396Z,62.77
2018-02-12T20:41:54.963Z,65.67
2018-02-12T20:44:23.143Z,68.53
2018-02-12T20:46:50.742Z,78.10
2018-02-12T20:49:18.333Z,80.57
2018-02-12T20:51:46.328Z,72.47
2018-02-12T20:54:13.875Z,71.57
2018-02-12T20:56:41.746Z,69.33
2018-02-12T20:59:10.074Z,64.83
2018-02-12T21:01:38.049Z,62.57
2018-02-12T21:04:05.826Z,64.10
2018-02-12T21:06:33.567Z,66.83
2018-02-12T21:09:01.339Z,62.90
2018-02-12T21:11:28.891Z,67.20
2018-02-12T21:13:56.786Z,72.40
2018-02-12T21:16:24.347Z,67.27
2018-02-12T21:18:52.124Z,71.17
2018-02-12T21:21:19.685Z,70.10
2018-02-12T21:23:48.410Z,70.33
2018-02-12T21:26:16.012Z,70.83
2018-02-12T21:28:43.960Z,59.00
2018-02-12T21:31:12.583Z,56.27
2018-02-12T21:33:40.195Z,60.97
2018-02-12T21:36:07.761Z,54.93
2018-02-12T21:38:35.331Z,56.53
2018-02-12T21:41:03.223Z,53.30
2018-02-12T21:43:30.776Z,51.33
2018-02-12T21:45:58.384Z,55.43
2018-02-12T21:48:25.944Z,50.47
2018-02-12T21:50:53.553Z,49.47
2018-02-12T21:53:21.449Z,48.63
2018-02-12T21:55:49.008Z,52.03
2018-02-12T21:58:16.599Z,49.63
2018-02-12T22:00:44.192Z,51.90
2018-02-12T22:03:11.775Z,51.27
2018-02-12T22:05:39.895Z,53.30
2018-02-12T22:08:08.410Z,48.57
2018-02-12T22:10:36.225Z,48.73
2018-02-12T22:13:04.852Z,47.50
2018-02-12T22:15:32.405Z,54.53
2018-02-12T22:18:00.011Z,50.10
2018-02-12T22:20:27.619Z,51.90
2018-02-12T22:22:56.095Z,49.67
2018-02-12T22:25:23.687Z,50.53
2018-02-12T22:27:51.482Z,49.17
2018-02-12T22:30:19.074Z,52.00
2018-02-12T22:32:46.618Z,56.70
2018-02-12T22:35:14.158Z,53.77
2018-02-12T22:37:42.908Z,54.97
2018-02-12T22:40:10.459Z,55.07
2018-02-12T22:42:38.016Z,54.90
2018-02-12T22:45:05.608Z,54.27
2018-02-12T22:47:33.146Z,64.00
2018-02-12T22:50:00.747Z,68.17
2018-02-12T22:52:28.454Z,77.30
2018-02-12T22:54:56.598Z,75.27
2018-02-12T22:57:25.037Z,83.13
2018-02-12T22:59:53.348Z,78.93
2018-02-12T23:02:20.972Z,72.20
2018-02-12T23:04:48.521Z,66.63
2018-02-12T23:07:16.071Z,67.50
2018-02-12T23:09:43.668Z,63.27
2018-02-12T23:12:11.215Z,60.10
2018-02-12T23:14:38.806Z,54.60
2018-02-12T23:17:12.218Z,53.10
2018-02-12T23:19:40.241Z,51.53
2018-02-12T23:22:07.793Z,48.40
2018-02-12T23:24:35.600Z,50.30
2018-02-12T23:27:03.182Z,46.83
2018-02-12T23:29:31.431Z,46.03
2018-02-12T23:31:59.032Z,48.50
2018-02-12T23:34:26.583Z,46.30
2018-02-12T23:36:54.136Z,45.07
2018-02-12T23:39:21.732Z,42.30
2018-02-12T23:41:49.280Z,45.03
2018-02-12T23:44:16.818Z,43.37
2018-02-12T23:46:44.391Z,44.10
2018-02-12T23:49:11.994Z,45.03
2018-02-12T23:51:39.532Z,44.20
2018-02-12T23:54:07.104Z,44.30
2018-02-12T23:56:34.675Z,46.93
2018-02-12T23:59:02.260Z,45.13
